createdAt,value
2022-09-15T00:00:55.971Z,100314.06
2022-09-15T00:02:27.525Z,100319.34
2022-09-15T00:03:59.184Z,100316.59
2022-09-15T00:05:30.607Z,100315.84
2022-09-15T00:07:02.142Z,100306.09
2022-09-15T00:08:33.862Z,100306.22
2022-09-15T00:10:06.126Z,100311.88
2022-09-15T00:11:38.009Z,100318.22
2022-09-15T00:13:09.452Z,100309.59
2022-09-15T00:14:40.927Z,100318.38
2022-09-15T00:16:15.353Z,100320.94
2022-09-15T00:17:49.551Z,100322.66
2022-09-15T00:19:21.035Z,100316.59
2022-09-15T00:20:52.572Z,100325.22
2022-09-15T00:22:24.042Z,100321.78
2022-09-15T00:23:55.878Z,100320.84
2022-09-15T00:25:27.340Z,100320.09
2022-09-15T00:26:58.787Z,100320.47
2022-09-15T00:28:31.686Z,100323.59
2022-09-15T00:30:03.794Z,100318.47
2022-09-15T00:31:36.603Z,100313.31
2022-09-15T00:33:08.027Z,100317.88
2022-09-15T00:34:39.505Z,100316.44
2022-09-15T00:36:11.811Z,100314.19
2022-09-15T00:37:43.316Z,100317.88
2022-09-15T00:39:14.782Z,100315.31
2022-09-15T00:40:47.578Z,100315.41
2022-09-15T00:42:20.016Z,100315.41
2022-09-15T00:43:54.341Z,100307.53
2022-09-15T00:45:26.084Z,100314.53
2022-09-15T00:47:18.380Z,100313.00
2022-09-15T00:48:54.068Z,100312.16
2022-09-15T00:50:25.664Z,100312.34
2022-09-15T00:51:59.352Z,100309.91
2022-09-15T00:53:31.623Z,100321.41
2022-09-15T00:55:05.872Z,100313.75
2022-09-15T00:56:38.466Z,100316.56
2022-09-15T00:58:11.965Z,100329.69
2022-09-15T00:59:44.523Z,100326.19
2022-09-15T01:01:16.089Z,100328.75
2022-09-15T01:02:49.295Z,100327.66
2022-09-15T01:04:20.907Z,100317.91
2022-09-15T01:05:54.698Z,100321.59
2022-09-15T01:07:32.247Z,100314.34
2022-09-15T01:09:07.573Z,100313.88
2022-09-15T01:10:39.965Z,100318.81
2022-09-15T01:12:11.426Z,100323.72
2022-09-15T01:13:43.089Z,100318.25
2022-09-15T01:15:15.040Z,100313.81
2022-09-15T01:16:51.975Z,100308.50
2022-09-15T01:18:31.872Z,100304.25
2022-09-15T01:20:21.756Z,100298.41
2022-09-15T01:21:59.013Z,100309.94
2022-09-15T01:24:02.261Z,100307.19
2022-09-15T01:25:45.151Z,100315.00
2022-09-15T01:27:41.618Z,100303.59
2022-09-15T01:29:34.871Z,100314.19
2022-09-15T01:31:09.146Z,100310.56
2022-09-15T01:33:04.341Z,100311.34
2022-09-15T01:34:40.480Z,100306.97
2022-09-15T01:36:14.258Z,100304.25
2022-09-15T01:37:49.539Z,100300.97
2022-09-15T01:39:23.415Z,100300.19
2022-09-15T01:40:57.463Z,100309.50
2022-09-15T01:42:31.005Z,100306.88
2022-09-15T01:44:05.366Z,100312.16
2022-09-15T01:45:38.969Z,100307.81
2022-09-15T01:47:13.760Z,100301.50
2022-09-15T01:48:46.660Z,100301.56
2022-09-15T01:50:21.001Z,100304.22
2022-09-15T01:51:53.260Z,100298.25
2022-09-15T01:53:24.686Z,100305.63
2022-09-15T01:54:57.755Z,100309.97
2022-09-15T01:56:29.297Z,100314.25
2022-09-15T01:58:00.768Z,100307.81
2022-09-15T01:59:33.487Z,100305.94
2022-09-15T02:01:07.414Z,100310.19
2022-09-15T02:02:43.959Z,100311.13
2022-09-15T02:04:18.281Z,100305.84
2022-09-15T02:05:52.750Z,100308.47
2022-09-15T02:07:31.136Z,100304.97
2022-09-15T02:09:04.525Z,100305.06
2022-09-15T02:10:41.043Z,100311.31
2022-09-15T02:12:19.894Z,100314.88
2022-09-15T02:13:55.472Z,100314.13
2022-09-15T02:15:29.104Z,100316.59
2022-09-15T02:17:02.024Z,100318.31
2022-09-15T02:18:37.715Z,100321.72
2022-09-15T02:20:15.506Z,100309.44
2022-09-15T02:21:59.403Z,100311.97
2022-09-15T02:23:32.781Z,100311.03
2022-09-15T02:25:05.702Z,100310.28
2022-09-15T02:26:39.087Z,100315.66
2022-09-15T02:28:11.722Z,100318.47
2022-09-15T02:29:44.674Z,100311.88
2022-09-15T02:31:20.918Z,100308.63
2022-09-15T02:32:56.035Z,100313.81
2022-09-15T02:34:31.139Z,100312.97
2022-09-15T02:36:03.467Z,100316.38
2022-09-15T02:37:36.306Z,100317.31
2022-09-15T02:39:09.182Z,100312.22
2022-09-15T02:40:43.149Z,100307.78
2022-09-15T02:42:21.932Z,100312.03
2022-09-15T02:43:53.370Z,100311.88
2022-09-15T02:45:25.782Z,100312.63
2022-09-15T02:46:57.450Z,100315.28
2022-09-15T02:48:28.935Z,100318.78
2022-09-15T02:50:01.902Z,100317.06
2022-09-15T02:51:33.804Z,100318.84
2022-09-15T02:53:05.325Z,100320.56
2022-09-15T02:54:36.799Z,100321.59
2022-09-15T02:56:08.243Z,100323.47
2022-09-15T02:57:39.698Z,100321.75
2022-09-15T02:59:11.097Z,100320.06
2022-09-15T03:00:42.675Z,100321.94
2022-09-15T03:02:14.311Z,100317.72
2022-09-15T03:03:46.284Z,100315.22
2022-09-15T03:05:20.353Z,100308.22
2022-09-15T03:06:51.801Z,100307.28
2022-09-15T03:08:23.283Z,100305.59
2022-09-15T03:09:54.744Z,100309.00
2022-09-15T03:11:27.535Z,100312.41
2022-09-15T03:12:59.170Z,100310.50
2022-09-15T03:14:32.485Z,100305.13
2022-09-15T03:16:06.690Z,100301.63
2022-09-15T03:17:39.339Z,100299.91
2022-09-15T03:19:10.807Z,100302.56
2022-09-15T03:20:43.596Z,100308.78
2022-09-15T03:22:15.153Z,100313.91
2022-09-15T03:23:46.659Z,100305.03
2022-09-15T03:25:18.298Z,100314.50
2022-09-15T03:26:49.754Z,100316.97
2022-09-15T03:28:21.250Z,100322.06
2022-09-15T03:29:52.965Z,100321.09
2022-09-15T03:31:24.493Z,100320.88
2022-09-15T03:32:56.241Z,100321.72
2022-09-15T03:34:27.648Z,100317.09
2022-09-15T03:36:00.553Z,100317.88
2022-09-15T03:37:32.013Z,100312.94
2022-09-15T03:39:03.762Z,100313.00
2022-09-15T03:40:37.673Z,100320.78
2022-09-15T03:42:09.142Z,100316.50
2022-09-15T03:43:41.402Z,100324.63
2022-09-15T03:45:12.850Z,100320.81
2022-09-15T03:46:44.514Z,100325.31
2022-09-15T03:48:15.992Z,100324.38
2022-09-15T03:49:47.567Z,100336.28
2022-09-15T03:51:20.631Z,100332.78
2022-09-15T03:52:54.585Z,100333.53
2022-09-15T03:54:29.548Z,100335.81
2022-09-15T03:56:07.627Z,100327.47
2022-09-15T03:57:39.084Z,100330.34
2022-09-15T03:59:10.545Z,100332.34
2022-09-15T04:00:42.338Z,100327.56
2022-09-15T04:02:14.374Z,100334.25
2022-09-15T04:03:50.653Z,100327.84
2022-09-15T04:05:22.783Z,100325.72
2022-09-15T04:06:55.601Z,100325.59
2022-09-15T04:08:27.296Z,100322.94
2022-09-15T04:09:58.851Z,100318.72
2022-09-15T04:11:30.885Z,100324.94
2022-09-15T04:13:02.333Z,100324.09
2022-09-15T04:14:34.137Z,100325.41
2022-09-15T04:16:06.528Z,100317.38
2022-09-15T04:17:37.994Z,100330.44
2022-09-15T04:19:09.463Z,100327.72
2022-09-15T04:20:41.358Z,100325.78
2022-09-15T04:22:17.652Z,100315.09
2022-09-15T04:23:49.638Z,100321.97
2022-09-15T04:25:21.096Z,100322.47
2022-09-15T04:26:52.532Z,100321.44
2022-09-15T04:28:24.149Z,100324.00
2022-09-15T04:29:55.808Z,100336.28
2022-09-15T04:31:27.325Z,100325.50
2022-09-15T04:32:58.921Z,100328.81
2022-09-15T04:34:30.361Z,100322.41
2022-09-15T04:36:02.732Z,100327.50
2022-09-15T04:37:35.537Z,100325.50
2022-09-15T04:39:07.086Z,100323.69
2022-09-15T04:40:38.552Z,100332.31
2022-09-15T04:42:10.022Z,100323.44
2022-09-15T04:43:41.913Z,100324.94
2022-09-15T04:45:13.434Z,100320.50
2022-09-15T04:46:44.978Z,100330.16
2022-09-15T04:48:16.771Z,100332.72
2022-09-15T04:49:48.422Z,100328.16
2022-09-15T04:51:21.000Z,100335.16
2022-09-15T04:52:54.112Z,100329.84
2022-09-15T04:54:25.661Z,100323.69
2022-09-15T04:56:04.047Z,100334.50
2022-09-15T04:57:35.475Z,100324.00
2022-09-15T04:59:13.133Z,100329.31
2022-09-15T05:00:44.682Z,100331.09
2022-09-15T05:02:16.265Z,100326.84
2022-09-15T05:03:48.139Z,100326.94
2022-09-15T05:05:19.625Z,100323.44
2022-09-15T05:06:51.191Z,100318.91
2022-09-15T05:08:24.099Z,100323.59
2022-09-15T05:09:55.586Z,100336.41
2022-09-15T05:11:28.289Z,100338.84
2022-09-15T05:13:00.027Z,100336.47
2022-09-15T05:14:31.857Z,100344.88
2022-09-15T05:16:04.309Z,100343.50
2022-09-15T05:17:35.839Z,100340.25
2022-09-15T05:19:07.370Z,100342.16
2022-09-15T05:20:38.839Z,100338.56
2022-09-15T05:22:10.398Z,100339.50
2022-09-15T05:23:43.708Z,100350.41
2022-09-15T05:25:15.303Z,100349.91
2022-09-15T05:26:47.041Z,100350.25
2022-09-15T05:28:18.495Z,100356.41
2022-09-15T05:29:50.001Z,100353.03
2022-09-15T05:31:22.641Z,100363.72
2022-09-15T05:32:54.199Z,100360.22
2022-09-15T05:34:25.687Z,100354.53
2022-09-15T05:35:58.031Z,100359.97
2022-09-15T05:37:29.513Z,100359.47
2022-09-15T05:39:02.404Z,100372.72
2022-09-15T05:40:33.910Z,100363.34
2022-09-15T05:42:05.737Z,100358.25
2022-09-15T05:43:37.846Z,100362.78
2022-09-15T05:45:10.051Z,100364.50
2022-09-15T05:46:41.603Z,100371.59
2022-09-15T05:48:13.433Z,100362.78
2022-09-15T05:49:44.969Z,100369.72
2022-09-15T05:51:16.459Z,100369.72
2022-09-15T05:52:50.817Z,100361.84
2022-09-15T05:54:23.843Z,100362.72
2022-09-15T05:55:55.804Z,100364.28
2022-09-15T05:57:27.300Z,100367.78
2022-09-15T05:58:58.921Z,100357.19
2022-09-15T06:00:30.361Z,100367.69
2022-09-15T06:02:02.048Z,100362.31
2022-09-15T06:03:33.862Z,100369.22
2022-09-15T06:05:05.907Z,100364.50
2022-09-15T06:06:37.511Z,100371.94
2022-09-15T06:08:09.516Z,100369.97
2022-09-15T06:09:42.521Z,100369.56
2022-09-15T06:11:15.548Z,100372.53
2022-09-15T06:12:47.117Z,100377.16
2022-09-15T06:14:18.606Z,100375.94
2022-09-15T06:15:50.269Z,100371.97
2022-09-15T06:17:23.064Z,100378.38
2022-09-15T06:18:54.650Z,100393.63
2022-09-15T06:20:26.178Z,100378.75
2022-09-15T06:21:57.689Z,100387.66
2022-09-15T06:23:29.279Z,100388.41
2022-09-15T06:25:02.066Z,100384.63
2022-09-15T06:26:33.698Z,100385.19
2022-09-15T06:28:05.178Z,100384.16
2022-09-15T06:29:36.953Z,100389.47
2022-09-15T06:31:12.325Z,100381.44
2022-09-15T06:32:47.943Z,100388.44
2022-09-15T06:34:19.894Z,100385.88
2022-09-15T06:35:51.369Z,100386.53
2022-09-15T06:37:22.828Z,100381.97
2022-09-15T06:38:54.631Z,100390.31
2022-09-15T06:40:27.533Z,100391.84
2022-09-15T06:42:02.784Z,100391.75
2022-09-15T06:43:36.367Z,100386.47
2022-09-15T06:45:08.279Z,100386.25
2022-09-15T06:46:39.752Z,100387.69
2022-09-15T06:48:23.819Z,100391.63
2022-09-15T06:49:56.397Z,100394.00
2022-09-15T06:51:35.547Z,100396.47
2022-09-15T06:53:07.054Z,100394.66
2022-09-15T06:54:38.730Z,100399.69
2022-09-15T06:56:13.079Z,100400.34
2022-09-15T06:57:44.566Z,100405.44
2022-09-15T06:59:16.667Z,100401.56
2022-09-15T07:00:48.132Z,100401.38
2022-09-15T07:02:19.725Z,100401.00
2022-09-15T07:03:51.421Z,100401.28
2022-09-15T07:05:25.121Z,100402.59
2022-09-15T07:06:56.643Z,100404.63
2022-09-15T07:08:28.159Z,100403.31
2022-09-15T07:10:00.895Z,100408.22
2022-09-15T07:11:33.805Z,100408.56
2022-09-15T07:13:05.287Z,100411.47
2022-09-15T07:14:36.767Z,100410.22
2022-09-15T07:16:09.706Z,100410.88
2022-09-15T07:17:41.253Z,100416.81
2022-09-15T07:19:12.944Z,100426.47
2022-09-15T07:20:44.542Z,100417.03
2022-09-15T07:22:16.064Z,100420.28
2022-09-15T07:23:48.182Z,100422.06
2022-09-15T07:25:19.639Z,100412.97
2022-09-15T07:26:52.486Z,100422.34
2022-09-15T07:28:23.933Z,100415.38
2022-09-15T07:29:55.376Z,100423.56
2022-09-15T07:31:27.905Z,100426.41
2022-09-15T07:32:59.411Z,100432.91
2022-09-15T07:34:31.036Z,100435.00
2022-09-15T07:36:02.943Z,100428.41
2022-09-15T07:37:34.441Z,100434.91
2022-09-15T07:39:06.020Z,100434.38
2022-09-15T07:40:38.168Z,100439.09
2022-09-15T07:42:11.305Z,100444.41
2022-09-15T07:43:45.120Z,100458.50
2022-09-15T07:45:16.782Z,100465.25
2022-09-15T07:46:48.267Z,100461.44
2022-09-15T07:48:23.270Z,100456.19
2022-09-15T07:49:58.237Z,100460.84
2022-09-15T07:51:29.679Z,100460.34
2022-09-15T07:53:01.297Z,100458.88
2022-09-15T07:54:32.842Z,100465.16
2022-09-15T07:56:04.485Z,100467.59
2022-09-15T07:57:37.567Z,100466.13
2022-09-15T07:59:08.988Z,100467.75
2022-09-15T08:00:40.502Z,100462.25
2022-09-15T08:02:15.662Z,100473.78
2022-09-15T08:03:48.930Z,100474.06
2022-09-15T08:05:20.564Z,100474.16
2022-09-15T08:06:52.766Z,100471.50
2022-09-15T08:08:24.223Z,100464.28
2022-09-15T08:09:55.710Z,100467.47
2022-09-15T08:11:27.526Z,100467.25
2022-09-15T08:13:00.615Z,100475.22
2022-09-15T08:14:32.829Z,100475.78
2022-09-15T08:16:05.159Z,100478.53
2022-09-15T08:17:36.627Z,100479.59
2022-09-15T08:19:08.137Z,100474.63
2022-09-15T08:20:39.894Z,100476.09
2022-09-15T08:22:11.392Z,100480.44
2022-09-15T08:23:42.946Z,100476.53
2022-09-15T08:25:14.738Z,100484.19
2022-09-15T08:26:47.147Z,100486.63
2022-09-15T08:28:20.057Z,100493.53
2022-09-15T08:29:51.686Z,100491.06
2022-09-15T08:31:24.425Z,100495.84
2022-09-15T08:32:56.345Z,100491.91
2022-09-15T08:34:29.660Z,100496.19
2022-09-15T08:36:02.171Z,100496.19
2022-09-15T08:37:34.192Z,100490.22
2022-09-15T08:39:06.269Z,100497.34
2022-09-15T08:40:38.033Z,100500.34
2022-09-15T08:42:14.378Z,100497.47
2022-09-15T08:43:49.988Z,100502.91
2022-09-15T08:45:24.383Z,100506.94
2022-09-15T08:46:59.398Z,100505.38
2022-09-15T08:48:34.117Z,100503.13
2022-09-15T08:50:11.691Z,100513.97
2022-09-15T08:51:46.147Z,100513.47
2022-09-15T08:53:19.913Z,100511.00
2022-09-15T08:54:53.060Z,100514.31
2022-09-15T08:56:24.769Z,100521.19
2022-09-15T08:57:56.260Z,100519.88
2022-09-15T08:59:31.847Z,100512.03
2022-09-15T09:01:06.087Z,100516.75
2022-09-15T09:02:49.789Z,100513.97
2022-09-15T09:04:30.320Z,100521.72
2022-09-15T09:06:06.279Z,100513.47
2022-09-15T09:07:51.028Z,100520.81
2022-09-15T09:09:29.443Z,100521.66
2022-09-15T09:11:04.662Z,100517.34
2022-09-15T09:12:42.583Z,100511.59
2022-09-15T09:14:18.747Z,100518.50
2022-09-15T09:16:00.030Z,100519.78
2022-09-15T09:17:39.630Z,100512.47
2022-09-15T09:19:20.907Z,100516.22
2022-09-15T09:20:58.538Z,100512.25
2022-09-15T09:22:33.075Z,100512.53
2022-09-15T09:24:05.842Z,100525.78
2022-09-15T09:25:38.293Z,100524.22
2022-09-15T09:27:12.947Z,100521.44
2022-09-15T09:28:47.413Z,100517.41
2022-09-15T09:30:21.041Z,100509.69
2022-09-15T09:31:56.268Z,100516.44
2022-09-15T09:33:30.288Z,100520.97
2022-09-15T09:35:03.791Z,100517.97
2022-09-15T09:36:35.353Z,100518.13
2022-09-15T09:38:08.731Z,100523.84
2022-09-15T09:39:40.231Z,100521.69
2022-09-15T09:41:12.976Z,100518.75
2022-09-15T09:42:44.749Z,100524.06
2022-09-15T09:44:16.295Z,100518.75
2022-09-15T09:45:47.868Z,100521.06
2022-09-15T09:47:21.492Z,100521.53
2022-09-15T09:48:54.672Z,100531.06
2022-09-15T09:50:36.030Z,100525.09
2022-09-15T09:52:07.692Z,100526.63
2022-09-15T09:53:39.162Z,100533.31
2022-09-15T09:55:20.252Z,100525.22
2022-09-15T09:56:52.597Z,100522.34
2022-09-15T09:58:25.242Z,100521.91
2022-09-15T09:59:56.764Z,100526.13
2022-09-15T10:01:28.513Z,100519.34
2022-09-15T10:03:08.987Z,100513.28
2022-09-15T10:04:41.716Z,100512.44
2022-09-15T10:06:15.113Z,100515.44
2022-09-15T10:07:46.789Z,100517.72
2022-09-15T10:09:19.317Z,100520.44
2022-09-15T10:10:51.508Z,100520.09
2022-09-15T10:12:24.586Z,100522.66
2022-09-15T10:13:56.424Z,100516.94
2022-09-15T10:15:28.813Z,100519.19
2022-09-15T10:17:01.657Z,100516.41
2022-09-15T10:18:36.949Z,100522.00
2022-09-15T10:20:21.472Z,100517.75
2022-09-15T10:21:53.505Z,100511.56
2022-09-15T10:23:26.322Z,100519.44
2022-09-15T10:24:58.563Z,100510.09
2022-09-15T10:26:32.104Z,100517.31
2022-09-15T10:28:11.917Z,100510.34
2022-09-15T10:29:43.435Z,100510.34
2022-09-15T10:31:25.717Z,100508.06
2022-09-15T10:33:17.300Z,100513.88
2022-09-15T10:34:58.276Z,100508.28
2022-09-15T10:36:30.952Z,100515.31
2022-09-15T10:38:04.976Z,100512.66
2022-09-15T10:39:43.315Z,100510.38
2022-09-15T10:41:20.664Z,100514.47
2022-09-15T10:42:53.347Z,100515.66
2022-09-15T10:44:30.372Z,100505.53
2022-09-15T10:46:03.900Z,100516.34
2022-09-15T10:47:41.542Z,100511.84
2022-09-15T10:49:20.190Z,100519.78
2022-09-15T10:50:55.984Z,100518.00
2022-09-15T10:52:34.339Z,100515.56
2022-09-15T10:54:15.093Z,100517.19
2022-09-15T10:55:53.567Z,100509.66
2022-09-15T10:57:32.461Z,100503.81
2022-09-15T10:59:11.661Z,100502.09
2022-09-15T11:00:46.508Z,100502.47
2022-09-15T11:02:35.693Z,100499.47
2022-09-15T11:04:27.865Z,100491.84
2022-09-15T11:06:09.672Z,100490.53
2022-09-15T11:07:46.122Z,100501.41
2022-09-15T11:09:20.336Z,100506.66
2022-09-15T11:10:57.261Z,100512.13
2022-09-15T11:12:36.415Z,100510.19
2022-09-15T11:14:17.324Z,100512.63
2022-09-15T11:15:54.646Z,100522.72
2022-09-15T11:17:33.737Z,100520.03
2022-09-15T11:19:11.525Z,100520.69
2022-09-15T11:21:03.203Z,100523.34
2022-09-15T11:22:38.595Z,100515.00
2022-09-15T11:24:20.928Z,100518.84
2022-09-15T11:25:54.463Z,100515.09
2022-09-15T11:27:27.891Z,100511.41
2022-09-15T11:29:04.197Z,100513.88
2022-09-15T11:30:37.832Z,100519.81
2022-09-15T11:32:11.645Z,100512.66
2022-09-15T11:33:44.971Z,100513.50
2022-09-15T11:35:37.467Z,100518.97
2022-09-15T11:37:13.055Z,100523.38
2022-09-15T11:38:49.015Z,100516.25
2022-09-15T11:40:24.816Z,100526.28
2022-09-15T11:42:02.649Z,100520.22
2022-09-15T11:43:37.368Z,100527.63
2022-09-15T11:45:14.879Z,100524.06
2022-09-15T11:46:57.612Z,100520.75
2022-09-15T11:48:33.532Z,100521.66
2022-09-15T11:50:11.535Z,100516.56
2022-09-15T11:51:50.609Z,100507.00
2022-09-15T11:53:25.518Z,100512.53
2022-09-15T11:55:01.020Z,100519.59
2022-09-15T11:56:35.167Z,100521.75
2022-09-15T11:58:16.332Z,100524.19
2022-09-15T11:59:53.394Z,100527.22
2022-09-15T12:01:27.942Z,100517.81
2022-09-15T12:03:06.458Z,100520.06
2022-09-15T12:04:40.833Z,100518.53
2022-09-15T12:06:15.704Z,100525.75
2022-09-15T12:07:51.555Z,100515.63
2022-09-15T12:09:23.114Z,100525.03
2022-09-15T12:10:59.012Z,100529.22
2022-09-15T12:12:31.386Z,100527.19
2022-09-15T12:14:03.965Z,100523.22
2022-09-15T12:15:35.475Z,100524.06
2022-09-15T12:17:12.031Z,100528.56
2022-09-15T12:18:47.108Z,100527.72
2022-09-15T12:20:21.755Z,100523.25
2022-09-15T12:21:56.335Z,100527.09
2022-09-15T12:23:32.753Z,100528.81
2022-09-15T12:25:09.333Z,100531.72
2022-09-15T12:26:43.437Z,100537.16
2022-09-15T12:28:37.459Z,100535.47
2022-09-15T12:30:30.345Z,100535.13
2022-09-15T12:32:19.592Z,100531.00
2022-09-15T12:33:55.082Z,100539.00
2022-09-15T12:35:31.135Z,100537.25
2022-09-15T12:37:08.008Z,100539.91
2022-09-15T12:38:40.472Z,100533.28
2022-09-15T12:40:35.718Z,100540.38
2022-09-15T12:42:22.551Z,100551.25
2022-09-15T12:43:56.172Z,100554.72
2022-09-15T12:45:29.173Z,100548.50
2022-09-15T12:47:01.507Z,100547.91
2022-09-15T12:48:34.323Z,100553.75
2022-09-15T12:50:22.311Z,100552.06
2022-09-15T12:51:54.555Z,100556.84
2022-09-15T12:53:28.238Z,100553.13
2022-09-15T12:55:01.866Z,100563.88
2022-09-15T12:56:34.128Z,100562.72
2022-09-15T12:58:08.240Z,100565.38
2022-09-15T12:59:41.306Z,100566.44
2022-09-15T13:01:31.636Z,100562.94
2022-09-15T13:03:04.619Z,100576.19
2022-09-15T13:04:51.674Z,100573.53
2022-09-15T13:06:23.700Z,100569.72
2022-09-15T13:07:56.104Z,100575.00
2022-09-15T13:09:28.491Z,100590.16
2022-09-15T13:11:01.134Z,100586.13
2022-09-15T13:12:36.219Z,100582.50
2022-09-15T13:14:11.376Z,100585.19
2022-09-15T13:15:46.569Z,100579.00
2022-09-15T13:17:19.218Z,100575.28
2022-09-15T13:18:55.425Z,100577.41
2022-09-15T13:20:31.862Z,100577.56
2022-09-15T13:22:05.039Z,100573.00
2022-09-15T13:23:39.952Z,100579.28
2022-09-15T13:25:15.739Z,100573.88
2022-09-15T13:26:48.924Z,100579.38
2022-09-15T13:28:21.328Z,100582.22
2022-09-15T13:29:57.058Z,100578.22
2022-09-15T13:31:37.643Z,100575.66
2022-09-15T13:33:15.792Z,100573.53
2022-09-15T13:35:04.247Z,100572.41
2022-09-15T13:38:55.567Z,100572.41
2022-09-15T13:40:44.151Z,100568.03
2022-09-15T13:42:25.862Z,100574.09
2022-09-15T13:44:05.629Z,100557.91
2022-09-15T13:45:49.506Z,100563.13
2022-09-15T13:47:31.331Z,100565.69
2022-09-15T13:49:14.504Z,100562.72
2022-09-15T13:50:49.646Z,100565.78
2022-09-15T13:52:24.098Z,100560.06
2022-09-15T13:53:57.732Z,100548.03
2022-09-15T13:55:31.485Z,100544.19
2022-09-15T13:57:04.583Z,100543.22
2022-09-15T14:00:29.765Z,100533.28
2022-09-15T14:02:01.467Z,100540.38
2022-09-15T14:03:39.093Z,100537.13
2022-09-15T14:05:11.588Z,100535.22
2022-09-15T14:06:44.353Z,100542.88
2022-09-15T14:08:20.951Z,100537.88
2022-09-15T14:09:52.635Z,100538.22
2022-09-15T14:11:26.669Z,100550.56
2022-09-15T14:12:59.256Z,100548.66
2022-09-15T14:14:36.473Z,100546.66
2022-09-15T14:16:19.323Z,100547.44
2022-09-15T14:17:51.242Z,100547.59
2022-09-15T14:19:33.168Z,100543.47
2022-09-15T14:21:05.902Z,100543.41
2022-09-15T14:22:40.786Z,100542.25
2022-09-15T14:24:25.496Z,100545.78
2022-09-15T14:25:59.625Z,100539.22
2022-09-15T14:27:33.693Z,100539.84
2022-09-15T14:29:06.453Z,100542.88
2022-09-15T14:30:38.566Z,100540.69
2022-09-15T14:32:12.965Z,100548.31
2022-09-15T14:33:45.476Z,100544.56
2022-09-15T14:35:19.944Z,100545.81
2022-09-15T14:36:59.262Z,100539.84
2022-09-15T14:38:30.711Z,100542.63
2022-09-15T14:40:16.631Z,100531.59
2022-09-15T14:41:48.921Z,100533.03
2022-09-15T14:43:24.658Z,100542.41
2022-09-15T14:46:47.925Z,100538.66
2022-09-15T14:48:25.559Z,100537.44
2022-09-15T14:50:14.818Z,100537.78
2022-09-15T14:51:49.255Z,100531.13
2022-09-15T14:53:23.196Z,100540.31
2022-09-15T14:54:57.747Z,100541.53
2022-09-15T14:56:32.651Z,100534.03
2022-09-15T14:58:07.010Z,100540.38
2022-09-15T14:59:41.562Z,100544.13
2022-09-15T15:01:15.753Z,100543.38
2022-09-15T15:02:54.226Z,100539.72
2022-09-15T15:04:30.867Z,100540.38
2022-09-15T15:06:28.363Z,100544.09
2022-09-15T15:08:01.577Z,100544.00
2022-09-15T15:09:38.070Z,100542.16
2022-09-15T15:11:12.946Z,100541.44
2022-09-15T15:12:46.174Z,100542.41
2022-09-15T15:14:18.314Z,100546.78
2022-09-15T15:15:49.888Z,100552.13
2022-09-15T15:17:27.281Z,100541.44
2022-09-15T15:18:58.874Z,100540.81
2022-09-15T15:20:30.500Z,100541.31
2022-09-15T15:22:14.773Z,100538.50
2022-09-15T15:23:47.755Z,100541.28
2022-09-15T15:25:24.923Z,100540.72
2022-09-15T15:26:56.422Z,100543.72
2022-09-15T15:28:31.939Z,100539.25
2022-09-15T15:30:18.259Z,100540.59
2022-09-15T15:31:51.406Z,100548.97
2022-09-15T15:33:24.478Z,100545.44
2022-09-15T15:34:59.780Z,100541.78
2022-09-15T15:36:33.244Z,100544.97
2022-09-15T15:38:12.775Z,100541.44
2022-09-15T15:39:46.742Z,100536.84
2022-09-15T15:41:20.221Z,100537.31
2022-09-15T15:42:54.247Z,100540.81
2022-09-15T15:44:27.923Z,100535.34
2022-09-15T15:46:03.548Z,100535.41
2022-09-15T15:47:35.866Z,100542.47
2022-09-15T15:49:09.508Z,100545.25
2022-09-15T15:50:44.001Z,100542.09
2022-09-15T15:52:15.668Z,100537.59
2022-09-15T15:53:47.733Z,100548.66
2022-09-15T15:55:21.463Z,100538.69
2022-09-15T15:56:53.201Z,100538.56
2022-09-15T15:58:24.751Z,100540.13
2022-09-15T15:59:57.033Z,100548.41
2022-09-15T16:01:28.687Z,100549.75
2022-09-15T16:03:01.472Z,100549.75
2022-09-15T16:04:33.004Z,100540.16
2022-09-15T16:06:04.707Z,100546.63
2022-09-15T16:07:37.451Z,100543.25
2022-09-15T16:09:10.631Z,100548.44
2022-09-15T16:10:46.026Z,100542.25
2022-09-15T16:12:17.551Z,100544.47
2022-09-15T16:13:49.137Z,100551.50
2022-09-15T16:15:21.343Z,100547.25
2022-09-15T16:16:58.921Z,100548.56
2022-09-15T16:18:30.503Z,100539.13
2022-09-15T16:20:02.342Z,100540.69
2022-09-15T16:21:37.008Z,100548.72
2022-09-15T16:23:12.609Z,100551.03
2022-09-15T16:24:44.456Z,100551.72
2022-09-15T16:26:18.490Z,100544.56
2022-09-15T16:27:49.958Z,100551.88
2022-09-15T16:29:26.121Z,100536.56
2022-09-15T16:30:57.735Z,100538.63
2022-09-15T16:32:31.375Z,100535.72
2022-09-15T16:34:03.101Z,100534.75
2022-09-15T16:35:37.340Z,100544.34
2022-09-15T16:37:09.066Z,100539.34
2022-09-15T16:38:43.522Z,100540.56
2022-09-15T16:40:15.340Z,100542.63
2022-09-15T16:41:48.321Z,100539.34
2022-09-15T16:43:23.222Z,100549.44
2022-09-15T16:44:55.031Z,100559.72
2022-09-15T16:46:26.859Z,100551.44
2022-09-15T16:47:58.877Z,100547.81
2022-09-15T16:49:30.451Z,100550.59
2022-09-15T16:51:21.933Z,100560.28
2022-09-15T16:52:53.496Z,100562.88
2022-09-15T16:54:25.473Z,100561.28
2022-09-15T16:55:56.974Z,100555.41
2022-09-15T16:57:29.906Z,100560.88
2022-09-15T16:59:01.731Z,100560.69
2022-09-15T17:00:34.871Z,100564.66
2022-09-15T17:02:12.637Z,100556.16
2022-09-15T17:03:44.721Z,100563.19
2022-09-15T17:05:18.543Z,100569.06
2022-09-15T17:06:49.999Z,100563.66
2022-09-15T17:08:22.785Z,100573.75
2022-09-15T17:09:54.305Z,100575.59
2022-09-15T17:11:26.293Z,100566.25
2022-09-15T17:12:59.143Z,100569.88
2022-09-15T17:14:30.591Z,100576.34
2022-09-15T17:16:02.539Z,100574.66
2022-09-15T17:17:34.509Z,100570.88
2022-09-15T17:19:06.174Z,100574.72
2022-09-15T17:20:39.377Z,100573.00
2022-09-15T17:22:11.558Z,100577.78
2022-09-15T17:23:45.053Z,100581.72
2022-09-15T17:25:21.502Z,100591.06
2022-09-15T17:26:53.277Z,100578.53
2022-09-15T17:28:27.051Z,100580.34
2022-09-15T17:29:59.223Z,100582.25
2022-09-15T17:31:32.443Z,100581.94
2022-09-15T17:33:04.990Z,100581.56
2022-09-15T17:34:39.405Z,100572.22
2022-09-15T17:36:11.082Z,100579.25
2022-09-15T17:37:42.587Z,100581.69
2022-09-15T17:39:14.030Z,100582.84
2022-09-15T17:40:45.821Z,100575.84
2022-09-15T17:42:17.377Z,100574.31
2022-09-15T17:43:50.536Z,100581.75
2022-09-15T17:45:23.072Z,100582.69
2022-09-15T17:46:54.567Z,100587.28
2022-09-15T17:48:26.360Z,100585.59
2022-09-15T17:49:57.782Z,100585.31
2022-09-15T17:51:29.425Z,100590.97
2022-09-15T17:53:01.112Z,100585.09
2022-09-15T17:54:32.641Z,100590.41
2022-09-15T17:56:04.159Z,100581.78
2022-09-15T17:57:35.729Z,100598.66
2022-09-15T17:59:10.875Z,100591.84
2022-09-15T18:00:45.278Z,100584.84
2022-09-15T18:02:17.927Z,100594.50